createdAt,value
2019-05-16T00:01:20.370Z,101811.77
2019-05-16T00:03:50.482Z,101801.17
2019-05-16T00:06:20.614Z,101795.84
2019-05-16T00:08:51.039Z,101790.13
2019-05-16T00:11:22.131Z,101792.36
2019-05-16T00:13:52.304Z,101780.02
2019-05-16T00:16:22.382Z,101781.33
2019-05-16T00:18:52.956Z,101776.51
2019-05-16T00:21:23.152Z,101774.75
2019-05-16T00:23:53.286Z,101771.69
2019-05-16T00:26:23.377Z,101773.05
2019-05-16T00:28:53.628Z,101772.16
2019-05-16T00:31:23.850Z,101768.63
2019-05-16T00:33:54.869Z,101770.41
2019-05-16T00:36:27.674Z,101769.52
2019-05-16T00:38:57.868Z,101768.64
2019-05-16T00:41:28.402Z,101759.39
2019-05-16T00:43:58.659Z,101764.27
2019-05-16T00:46:28.790Z,101766.91
2019-05-16T00:48:59.068Z,101765.11
2019-05-16T00:51:29.350Z,101759.83
2019-05-16T00:53:59.450Z,101758.53
2019-05-16T00:56:30.336Z,101755.00
2019-05-16T00:59:01.021Z,101750.13
2019-05-16T01:01:31.194Z,101752.34
2019-05-16T01:04:03.001Z,101747.08
2019-05-16T01:06:33.194Z,101752.36
2019-05-16T01:09:04.318Z,101743.08
2019-05-16T01:11:34.452Z,101735.17
2019-05-16T01:14:04.814Z,101734.70
2019-05-16T01:16:34.982Z,101728.97
2019-05-16T01:19:05.411Z,101725.03
2019-05-16T01:21:35.606Z,101730.75
2019-05-16T01:24:08.028Z,101726.78
2019-05-16T01:26:39.233Z,101728.98
2019-05-16T01:29:11.727Z,101721.06
2019-05-16T01:31:41.441Z,101726.36
2019-05-16T01:34:11.583Z,101725.48
2019-05-16T01:36:41.807Z,101724.58
2019-05-16T01:39:11.941Z,101724.59
2019-05-16T01:41:42.056Z,101722.38
2019-05-16T01:44:12.428Z,101715.31
2019-05-16T01:46:42.527Z,101718.84
2019-05-16T01:49:13.633Z,101714.00
2019-05-16T01:51:43.773Z,101713.99
2019-05-16T01:54:13.907Z,101711.34
2019-05-16T01:56:44.029Z,101720.16
2019-05-16T01:59:14.189Z,101705.19
2019-05-16T02:01:44.300Z,101704.31
2019-05-16T02:04:15.495Z,101703.86
2019-05-16T02:06:51.813Z,101696.36
2019-05-16T02:09:18.911Z,101697.70
2019-05-16T02:11:49.223Z,101693.72
2019-05-16T02:14:19.423Z,101688.44
2019-05-16T02:16:49.581Z,101686.66
2019-05-16T02:19:19.725Z,101680.48
2019-05-16T02:21:50.608Z,101676.97
2019-05-16T02:24:20.905Z,101674.77
2019-05-16T02:26:52.367Z,101677.41
2019-05-16T02:29:22.855Z,101669.05
2019-05-16T02:31:52.960Z,101672.14
2019-05-16T02:34:23.175Z,101676.09
2019-05-16T02:37:14.486Z,101668.15
2019-05-16T02:39:25.090Z,101669.48
2019-05-16T02:41:55.171Z,101669.94
2019-05-16T02:44:33.284Z,101661.09
2019-05-16T02:47:10.623Z,101660.67
2019-05-16T02:49:41.966Z,101662.85
2019-05-16T02:52:11.160Z,101651.86
2019-05-16T02:54:45.515Z,101654.48
2019-05-16T02:57:16.801Z,101655.36
2019-05-16T02:59:46.882Z,101650.53
2019-05-16T03:02:17.063Z,101646.98
2019-05-16T03:04:51.700Z,101654.06
2019-05-16T03:07:37.709Z,101649.64
2019-05-16T03:10:02.398Z,101644.80
2019-05-16T03:12:40.882Z,101649.65
2019-05-16T03:15:12.791Z,101638.19
2019-05-16T03:17:50.635Z,101627.17
2019-05-16T03:20:21.238Z,101632.89
2019-05-16T03:22:53.250Z,101635.54
2019-05-16T03:25:25.621Z,101631.58
2019-05-16T03:27:57.852Z,101632.03
2019-05-16T03:30:34.669Z,101622.77
2019-05-16T03:33:04.511Z,101623.64
2019-05-16T03:35:35.029Z,101624.98
2019-05-16T03:38:06.001Z,101616.58
2019-05-16T03:40:44.085Z,101610.41
2019-05-16T03:43:17.004Z,101616.55
2019-05-16T03:45:51.835Z,101607.77
2019-05-16T03:48:21.882Z,101609.95
2019-05-16T03:50:52.037Z,101605.53
2019-05-16T03:53:22.117Z,101606.41
2019-05-16T03:55:52.494Z,101605.98
2019-05-16T03:58:25.416Z,101601.55
2019-05-16T04:01:02.390Z,101600.69
2019-05-16T04:03:41.213Z,101598.47
2019-05-16T04:06:12.275Z,101599.35
2019-05-16T04:08:44.972Z,101597.55
2019-05-16T04:11:23.016Z,101598.42
2019-05-16T04:13:52.569Z,101597.58
2019-05-16T04:16:22.780Z,101591.39
2019-05-16T04:18:55.928Z,101598.42
2019-05-16T04:21:26.031Z,101589.59
2019-05-16T04:23:56.187Z,101590.03
2019-05-16T04:26:26.324Z,101590.44
2019-05-16T04:28:56.824Z,101586.44
2019-05-16T04:31:41.348Z,101583.39
2019-05-16T04:34:11.903Z,101582.89
2019-05-16T04:36:44.203Z,101581.55
2019-05-16T04:39:14.315Z,101584.67
2019-05-16T04:41:45.222Z,101591.72
2019-05-16T04:44:15.340Z,101592.63
2019-05-16T04:46:45.583Z,101589.51
2019-05-16T04:49:15.821Z,101582.45
2019-05-16T04:51:51.388Z,101586.85
2019-05-16T04:54:21.564Z,101581.53
2019-05-16T04:56:52.025Z,101574.42
2019-05-16T04:59:22.425Z,101576.16
2019-05-16T05:01:55.769Z,101580.98
2019-05-16T05:04:25.981Z,101576.12
2019-05-16T05:06:56.400Z,101568.95
2019-05-16T05:09:27.853Z,101572.84
2019-05-16T05:12:04.392Z,101573.69
2019-05-16T05:14:31.974Z,101571.91
2019-05-16T05:17:05.199Z,101576.37
2019-05-16T05:19:34.263Z,101575.91
2019-05-16T05:22:10.345Z,101575.92
2019-05-16T05:24:40.560Z,101570.05
2019-05-16T05:27:10.982Z,101575.33
2019-05-16T05:29:41.648Z,101578.44
2019-05-16T05:32:15.188Z,101584.22
2019-05-16T05:34:45.826Z,101580.70
2019-05-16T05:37:20.412Z,101576.30
2019-05-16T05:39:54.627Z,101579.47
2019-05-16T05:42:25.989Z,101578.28
2019-05-16T05:44:57.360Z,101575.95
2019-05-16T05:47:30.726Z,101575.52
2019-05-16T05:50:01.175Z,101581.34
2019-05-16T05:52:46.169Z,101575.97
2019-05-16T05:55:20.056Z,101576.41
2019-05-16T05:57:51.956Z,101581.31
2019-05-16T06:00:22.241Z,101577.80
2019-05-16T06:02:53.373Z,101579.14
2019-05-16T06:05:24.362Z,101580.48
2019-05-16T06:08:00.179Z,101573.05
2019-05-16T06:10:30.424Z,101569.50
2019-05-16T06:13:02.381Z,101564.62
2019-05-16T06:15:32.534Z,101560.58
2019-05-16T06:18:02.751Z,101558.25
2019-05-16T06:20:32.999Z,101556.09
2019-05-16T06:23:03.182Z,101549.04
2019-05-16T06:25:33.310Z,101546.41
2019-05-16T06:28:04.426Z,101549.89
2019-05-16T06:30:34.563Z,101552.23
2019-05-16T06:33:05.020Z,101556.58
2019-05-16T06:35:35.348Z,101555.62
2019-05-16T06:38:05.654Z,101550.30
2019-05-16T06:40:37.056Z,101550.20
2019-05-16T06:43:10.789Z,101548.81
2019-05-16T06:45:40.376Z,101544.61
2019-05-16T06:48:10.560Z,101548.05
2019-05-16T06:50:41.445Z,101544.48
2019-05-16T06:53:11.642Z,101536.48
2019-05-16T06:55:41.740Z,101530.02
2019-05-16T06:58:13.087Z,101532.14
2019-05-16T07:00:43.314Z,101531.38
2019-05-16T07:03:14.689Z,101529.66
2019-05-16T07:05:45.736Z,101529.47
2019-05-16T07:08:16.422Z,101527.30
2019-05-16T07:10:46.642Z,101523.76
2019-05-16T07:13:16.882Z,101520.69
2019-05-16T07:15:50.546Z,101524.98
2019-05-16T07:18:21.476Z,101517.89
2019-05-16T07:20:51.848Z,101523.47
2019-05-16T07:23:24.465Z,101521.08
2019-05-16T07:25:54.953Z,101513.11
2019-05-16T07:28:25.069Z,101518.06
2019-05-16T07:30:55.292Z,101513.67
2019-05-16T07:33:25.935Z,101519.95
2019-05-16T07:35:57.643Z,101523.18
2019-05-16T07:38:30.990Z,101516.70
2019-05-16T07:41:01.329Z,101521.15
2019-05-16T07:43:31.436Z,101519.01
2019-05-16T07:46:02.878Z,101514.59
2019-05-16T07:48:33.126Z,101517.23
2019-05-16T07:51:04.716Z,101513.77
2019-05-16T07:53:34.847Z,101514.68
2019-05-16T07:56:05.998Z,101514.30
2019-05-16T07:58:36.834Z,101513.39
2019-05-16T08:01:09.060Z,101512.48
2019-05-16T08:03:43.681Z,101507.77
2019-05-16T08:06:15.826Z,101506.91
2019-05-16T08:08:46.063Z,101506.03
2019-05-16T08:11:16.367Z,101503.34
2019-05-16T08:13:46.469Z,101497.67
2019-05-16T08:16:17.615Z,101494.55
2019-05-16T08:18:50.512Z,101484.37
2019-05-16T08:21:20.233Z,101484.83
2019-05-16T08:23:50.779Z,101481.27
2019-05-16T08:26:22.016Z,101478.15
2019-05-16T08:28:52.480Z,101470.61
2019-05-16T08:31:22.683Z,101472.84
2019-05-16T08:34:03.346Z,101467.08
2019-05-16T08:36:34.113Z,101464.00
2019-05-16T08:39:06.828Z,101459.17
2019-05-16T08:41:37.251Z,101460.11
2019-05-16T08:44:07.395Z,101454.01
2019-05-16T08:46:41.151Z,101451.00
2019-05-16T08:49:12.295Z,101449.61
2019-05-16T08:51:43.008Z,101441.17
2019-05-16T08:54:13.626Z,101442.52
2019-05-16T08:56:50.798Z,101442.55
2019-05-16T08:59:21.512Z,101442.50
2019-05-16T09:01:58.126Z,101439.95
2019-05-16T09:04:25.904Z,101440.43
2019-05-16T09:07:01.613Z,101436.41
2019-05-16T09:10:34.106Z,101426.66
2019-05-16T09:12:09.133Z,101421.34
2019-05-16T09:14:39.412Z,101430.16
2019-05-16T09:17:11.207Z,101420.48
2019-05-16T09:19:47.522Z,101424.00
2019-05-16T09:22:18.184Z,101412.58
2019-05-16T09:24:48.998Z,101404.94
2019-05-16T09:27:20.814Z,101405.91
2019-05-16T09:29:51.126Z,101413.78
2019-05-16T09:32:22.787Z,101405.47
2019-05-16T09:34:52.937Z,101400.67
2019-05-16T09:37:23.288Z,101409.06
2019-05-16T09:39:53.398Z,101400.25
2019-05-16T09:42:24.487Z,101390.66
2019-05-16T09:44:57.785Z,101399.48
2019-05-16T09:47:29.702Z,101398.59
2019-05-16T09:49:59.885Z,101391.08
2019-05-16T09:52:31.304Z,101384.02
2019-05-16T09:55:01.630Z,101384.52
2019-05-16T09:57:33.692Z,101382.28
2019-05-16T10:00:06.638Z,101384.53
2019-05-16T10:02:36.838Z,101382.34
2019-05-16T10:05:13.249Z,101385.41
2019-05-16T10:07:42.448Z,101388.91
2019-05-16T10:10:14.436Z,101395.95
2019-05-16T10:12:44.594Z,101372.63
2019-05-16T10:15:17.465Z,101378.33
2019-05-16T10:17:47.815Z,101374.34
2019-05-16T10:20:18.690Z,101359.35
2019-05-16T10:22:50.568Z,101356.27
2019-05-16T10:25:20.971Z,101354.09
2019-05-16T10:27:52.428Z,101350.58
2019-05-16T10:30:22.855Z,101348.36
2019-05-16T10:32:54.181Z,101343.45
2019-05-16T10:35:29.801Z,101339.41
2019-05-16T10:37:58.653Z,101334.11
2019-05-16T10:40:30.346Z,101341.64
2019-05-16T10:43:00.791Z,101335.48
2019-05-16T10:45:30.933Z,101332.34
2019-05-16T10:48:03.306Z,101327.97
2019-05-16T10:50:33.417Z,101328.89
2019-05-16T10:53:25.737Z,101321.87
2019-05-16T10:55:36.812Z,101328.48
2019-05-16T10:58:07.687Z,101319.72
2019-05-16T11:01:05.493Z,101318.83
2019-05-16T11:03:09.878Z,101311.67
2019-05-16T11:05:41.510Z,101323.52
2019-05-16T11:08:11.894Z,101317.38
2019-05-16T11:10:42.279Z,101312.61
2019-05-16T11:13:12.644Z,101319.23
2019-05-16T11:15:42.897Z,101314.75
2019-05-16T11:18:13.085Z,101315.66
2019-05-16T11:20:47.856Z,101316.05
2019-05-16T11:23:21.265Z,101304.56
2019-05-16T11:25:47.170Z,101302.30
2019-05-16T11:28:20.024Z,101305.02
2019-05-16T11:30:50.516Z,101292.17
2019-05-16T11:33:21.982Z,101290.30
2019-05-16T11:35:52.212Z,101288.28
2019-05-16T11:38:22.432Z,101283.88
2019-05-16T11:40:56.646Z,101283.35
2019-05-16T11:43:24.682Z,101277.59
2019-05-16T11:45:57.242Z,101284.70
2019-05-16T11:48:29.304Z,101278.55
2019-05-16T11:50:59.052Z,101276.43
2019-05-16T11:53:29.207Z,101272.91
2019-05-16T11:56:01.561Z,101269.02
2019-05-16T11:58:32.277Z,101264.57
2019-05-16T12:01:02.400Z,101267.69
2019-05-16T12:03:32.541Z,101264.08
2019-05-16T12:06:02.742Z,101253.08
2019-05-16T12:08:32.902Z,101255.19
2019-05-16T12:11:06.748Z,101248.67
2019-05-16T12:13:37.042Z,101247.78
2019-05-16T12:16:07.860Z,101251.38
2019-05-16T12:18:38.008Z,101245.23
2019-05-16T12:21:08.184Z,101246.96
2019-05-16T12:23:38.782Z,101247.37
2019-05-16T12:26:09.374Z,101246.92
2019-05-16T12:28:40.175Z,101246.96
2019-05-16T12:31:10.336Z,101244.75
2019-05-16T12:33:41.027Z,101243.44
2019-05-16T12:36:11.255Z,101239.39
2019-05-16T12:38:41.317Z,101236.27
2019-05-16T12:41:11.495Z,101227.04
2019-05-16T12:43:49.280Z,101230.95
2019-05-16T12:46:13.918Z,101232.84
2019-05-16T12:48:47.217Z,101225.27
2019-05-16T12:51:17.322Z,101221.30
2019-05-16T12:53:50.440Z,101218.92
2019-05-16T12:56:21.249Z,101220.13
2019-05-16T12:58:51.395Z,101222.80
2019-05-16T13:01:29.470Z,101217.23
2019-05-16T13:03:53.613Z,101211.57
2019-05-16T13:06:23.836Z,101204.92
2019-05-16T13:08:54.184Z,101205.02
2019-05-16T13:11:26.836Z,101198.03
2019-05-16T13:14:03.274Z,101188.72
2019-05-16T13:16:31.189Z,101191.74
2019-05-16T13:19:01.312Z,101184.28
2019-05-16T13:21:31.521Z,101175.06
2019-05-16T13:24:02.799Z,101181.63
2019-05-16T13:26:32.931Z,101177.11
2019-05-16T13:29:03.126Z,101171.77
2019-05-16T13:31:33.355Z,101166.88
2019-05-16T13:34:07.315Z,101168.82
2019-05-16T13:36:39.035Z,101171.95
2019-05-16T13:39:09.531Z,101155.67
2019-05-16T13:41:40.183Z,101149.03
2019-05-16T13:44:18.365Z,101140.18
2019-05-16T13:46:48.045Z,101132.62
2019-05-16T13:49:18.459Z,101132.14
2019-05-16T13:51:50.172Z,101135.22
2019-05-16T13:54:20.413Z,101131.22
2019-05-16T13:56:50.789Z,101128.66
2019-05-16T13:59:20.992Z,101116.78
2019-05-16T14:01:52.049Z,101113.58
2019-05-16T14:04:22.592Z,101105.56
2019-05-16T14:06:55.731Z,101111.81
2019-05-16T14:09:26.847Z,101102.20
2019-05-16T14:11:57.128Z,101103.00
2019-05-16T14:14:37.176Z,101099.11
2019-05-16T14:16:59.222Z,101085.05
2019-05-16T14:19:29.717Z,101087.23
2019-05-16T14:21:59.969Z,101088.95
2019-05-16T14:24:30.290Z,101084.91
2019-05-16T14:27:00.793Z,101077.02
2019-05-16T14:29:31.211Z,101071.12
2019-05-16T14:32:01.446Z,101071.69
2019-05-16T14:34:32.357Z,101069.41
2019-05-16T14:37:02.550Z,101059.07
2019-05-16T14:39:38.440Z,101066.64
2019-05-16T14:42:06.538Z,101058.25
2019-05-16T14:44:57.557Z,101053.80
2019-05-16T14:47:11.291Z,101048.47
2019-05-16T14:49:43.345Z,101047.25
2019-05-16T14:52:13.539Z,101045.02
2019-05-16T14:54:46.927Z,101042.77
2019-05-16T14:57:17.695Z,101049.88
2019-05-16T14:59:47.939Z,101045.20
2019-05-16T15:02:18.330Z,101039.10
2019-05-16T15:04:49.562Z,101040.31
2019-05-16T15:07:23.303Z,101043.92
2019-05-16T15:09:53.588Z,101044.17
2019-05-16T15:12:26.800Z,101037.45
2019-05-16T15:15:14.062Z,101041.46
2019-05-16T15:17:29.446Z,101035.56
2019-05-16T15:19:59.968Z,101034.98
2019-05-16T15:22:39.702Z,101026.17
2019-05-16T15:25:17.693Z,101026.09
2019-05-16T15:27:47.842Z,101029.80
2019-05-16T15:30:20.827Z,101027.23
2019-05-16T15:32:56.923Z,101022.64
2019-05-16T15:35:30.504Z,101013.23
2019-05-16T15:38:07.836Z,101019.89
2019-05-16T15:40:37.945Z,101009.16
2019-05-16T15:43:08.396Z,101001.97
2019-05-16T15:45:44.153Z,100997.67
2019-05-16T15:48:17.234Z,100999.80
2019-05-16T15:50:47.847Z,101000.91
2019-05-16T15:53:23.479Z,100996.73
2019-05-16T15:55:54.636Z,100995.03
2019-05-16T15:58:26.750Z,100997.30
2019-05-16T16:00:58.313Z,100993.86
2019-05-16T16:03:28.525Z,100992.77
2019-05-16T16:05:58.831Z,100996.41
2019-05-16T16:08:31.609Z,100995.63
2019-05-16T16:11:01.928Z,100981.97
2019-05-16T16:13:33.855Z,100987.52
2019-05-16T16:16:09.166Z,100983.19
2019-05-16T16:18:37.725Z,100983.39
2019-05-16T16:21:08.236Z,100974.97
2019-05-16T16:23:40.796Z,100973.67
2019-05-16T16:26:11.698Z,100975.40
2019-05-16T16:28:43.483Z,100977.55
2019-05-16T16:31:13.810Z,100975.83
2019-05-16T16:33:44.041Z,100979.69
2019-05-16T16:36:16.921Z,100970.02
2019-05-16T16:38:47.699Z,100963.77
2019-05-16T16:41:19.068Z,100958.86
2019-05-16T16:43:50.254Z,100958.42
2019-05-16T16:46:20.395Z,100961.95
2019-05-16T16:48:51.227Z,100956.61
2019-05-16T16:51:26.887Z,100962.39
2019-05-16T16:53:58.333Z,100962.33
2019-05-16T16:56:29.710Z,100957.03
2019-05-16T16:58:59.855Z,100954.98
2019-05-16T17:01:30.774Z,100957.61
2019-05-16T17:04:02.486Z,100958.80
2019-05-16T17:06:32.862Z,100959.63
2019-05-16T17:09:08.697Z,100959.95
2019-05-16T17:11:41.538Z,100966.48
2019-05-16T17:14:11.956Z,100970.20
2019-05-16T17:16:42.494Z,100969.56
2019-05-16T17:19:13.156Z,100966.91
2019-05-16T17:21:51.623Z,100961.55
2019-05-16T17:24:16.794Z,100964.60
2019-05-16T17:26:49.440Z,100967.46
2019-05-16T17:29:19.770Z,100960.14
2019-05-16T17:31:55.605Z,100962.05
2019-05-16T17:34:22.032Z,100968.09
2019-05-16T17:36:52.222Z,100969.53
2019-05-16T17:39:22.381Z,100968.55
2019-05-16T17:41:54.946Z,100969.88
2019-05-16T17:44:27.001Z,100968.14
2019-05-16T17:46:57.471Z,100967.66
2019-05-16T17:49:29.364Z,100971.63
2019-05-16T17:51:59.589Z,100966.05
2019-05-16T17:54:29.823Z,100971.41
2019-05-16T17:57:00.036Z,100966.33
2019-05-16T17:59:30.464Z,100970.61
2019-05-16T18:02:01.594Z,100970.56
2019-05-16T18:04:31.858Z,100969.81
2019-05-16T18:07:02.003Z,100972.44
2019-05-16T18:09:32.260Z,100982.66
2019-05-16T18:12:02.589Z,100980.32
2019-05-16T18:14:32.952Z,100978.08
2019-05-16T18:17:03.013Z,100981.16
2019-05-16T18:19:34.602Z,100978.45
2019-05-16T18:22:06.694Z,100979.03
2019-05-16T18:24:37.132Z,100975.98
2019-05-16T18:27:11.628Z,100975.12
2019-05-16T18:29:46.967Z,100972.37
2019-05-16T18:32:17.074Z,100973.67
2019-05-16T18:34:47.392Z,100966.95
2019-05-16T18:37:17.669Z,100965.25
2019-05-16T18:39:47.829Z,100964.77
2019-05-16T18:42:18.108Z,100967.47
2019-05-16T18:44:48.254Z,100965.84
2019-05-16T18:47:19.320Z,100966.27
2019-05-16T18:49:49.516Z,100966.02
2019-05-16T18:52:22.764Z,100974.89
2019-05-16T18:54:53.332Z,100963.98
2019-05-16T18:57:23.762Z,100970.06
2019-05-16T18:59:54.115Z,100973.27
2019-05-16T19:02:27.150Z,100967.59
2019-05-16T19:05:00.943Z,100967.17
2019-05-16T19:07:47.532Z,100966.09
2019-05-16T19:10:17.619Z,100959.86
2019-05-16T19:12:47.945Z,100966.42
2019-05-16T19:15:20.384Z,100966.52
2019-05-16T19:17:52.162Z,100966.33
2019-05-16T19:20:23.218Z,100969.72
2019-05-16T19:22:58.853Z,100965.81
2019-05-16T19:25:27.065Z,100963.86
2019-05-16T19:27:59.748Z,100967.22
2019-05-16T19:30:33.310Z,100968.80
2019-05-16T19:33:04.036Z,100961.22
2019-05-16T19:35:37.349Z,100958.20
2019-05-16T19:38:07.978Z,100959.19
2019-05-16T19:40:40.617Z,100963.06
2019-05-16T19:43:11.186Z,100963.93
2019-05-16T19:45:41.798Z,100962.61
2019-05-16T19:48:12.298Z,100959.49
2019-05-16T19:50:42.554Z,100961.38
2019-05-16T19:53:12.937Z,100955.88
2019-05-16T19:55:43.300Z,100961.92
2019-05-16T19:58:13.747Z,100961.50
2019-05-16T20:00:46.521Z,100964.39
2019-05-16T20:03:16.785Z,100962.45
2019-05-16T20:05:47.766Z,100958.11
2019-05-16T20:08:18.519Z,100961.16
2019-05-16T20:10:48.800Z,100953.33
2019-05-16T20:13:19.365Z,100949.30
2019-05-16T20:15:49.783Z,100951.94
2019-05-16T20:18:20.553Z,100951.05
2019-05-16T20:20:51.309Z,100958.11
2019-05-16T20:23:23.543Z,100959.25
2019-05-16T20:25:57.315Z,100950.77
2019-05-16T20:28:31.471Z,100954.59
2019-05-16T20:31:02.691Z,100950.02
2019-05-16T20:33:33.217Z,100953.20
2019-05-16T20:36:06.383Z,100951.81
2019-05-16T20:38:38.505Z,100951.87
2019-05-16T20:41:08.905Z,100940.54
2019-05-16T20:43:40.383Z,100944.61
2019-05-16T20:46:11.716Z,100951.05
2019-05-16T20:48:42.136Z,100951.87
2019-05-16T20:51:13.081Z,100945.61
2019-05-16T20:53:43.503Z,100947.34
2019-05-16T20:56:14.037Z,100943.66
2019-05-16T20:58:46.750Z,100947.00
2019-05-16T21:01:17.501Z,100939.98
2019-05-16T21:03:48.561Z,100936.97
2019-05-16T21:06:19.226Z,100939.58
2019-05-16T21:08:49.753Z,100942.23
2019-05-16T21:11:20.027Z,100935.70
2019-05-16T21:13:52.062Z,100934.09
2019-05-16T21:16:22.337Z,100932.86
2019-05-16T21:18:52.580Z,100927.72
2019-05-16T21:21:22.831Z,100925.83
2019-05-16T21:23:53.669Z,100929.31
2019-05-16T21:26:26.192Z,100925.80
2019-05-16T21:28:57.069Z,100922.13
2019-05-16T21:31:30.309Z,100921.69
2019-05-16T21:34:00.501Z,100926.06
2019-05-16T21:36:30.672Z,100923.16
2019-05-16T21:39:00.785Z,100920.77
2019-05-16T21:41:31.631Z,100920.41
2019-05-16T21:44:02.507Z,100915.70
2019-05-16T21:46:32.699Z,100912.12
2019-05-16T21:49:02.863Z,100917.48
2019-05-16T21:51:33.017Z,100913.08
2019-05-16T21:54:03.487Z,100914.34
2019-05-16T21:56:33.699Z,100918.91
2019-05-16T21:59:03.877Z,100915.70
2019-05-16T22:01:34.211Z,100910.36
2019-05-16T22:04:07.378Z,100909.44
2019-05-16T22:06:37.757Z,100904.23
2019-05-16T22:09:09.215Z,100907.41
2019-05-16T22:11:41.081Z,100903.44
2019-05-16T22:14:12.869Z,100901.91
2019-05-16T22:16:46.640Z,100898.83
2019-05-16T22:19:16.486Z,100896.05
2019-05-16T22:21:47.942Z,100897.01
2019-05-16T22:24:18.119Z,100894.72
2019-05-16T22:26:48.289Z,100895.02
2019-05-16T22:29:18.611Z,100897.08
2019-05-16T22:31:48.988Z,100885.81
2019-05-16T22:34:19.465Z,100888.23
2019-05-16T22:36:49.607Z,100895.39
2019-05-16T22:39:19.913Z,100890.87
2019-05-16T22:41:50.327Z,100887.36
2019-05-16T22:44:20.490Z,100886.91
2019-05-16T22:46:50.689Z,100887.27
2019-05-16T22:49:20.835Z,100885.38
2019-05-16T22:51:51.029Z,100892.89
2019-05-16T22:54:21.277Z,100889.64
2019-05-16T22:56:51.525Z,100889.45
2019-05-16T22:59:22.147Z,100883.89
2019-05-16T23:01:52.605Z,100881.11
2019-05-16T23:04:23.773Z,100876.30
2019-05-16T23:06:56.346Z,100883.75
2019-05-16T23:09:27.075Z,100875.14
2019-05-16T23:11:57.299Z,100872.25
2019-05-16T23:14:27.430Z,100876.63
2019-05-16T23:16:57.579Z,100881.17
2019-05-16T23:19:27.715Z,100874.14
2019-05-16T23:21:57.882Z,100874.25
2019-05-16T23:24:28.003Z,100871.10
2019-05-16T23:27:01.472Z,100868.55
2019-05-16T23:29:31.612Z,100867.74
2019-05-16T23:32:01.785Z,100869.67
2019-05-16T23:34:31.888Z,100857.21
2019-05-16T23:37:02.019Z,100853.87
2019-05-16T23:39:32.145Z,100847.67
2019-05-16T23:42:02.333Z,100848.67
2019-05-16T23:44:32.428Z,100837.72
2019-05-16T23:47:02.656Z,100851.30
2019-05-16T23:49:32.795Z,100840.36
2019-05-16T23:52:02.974Z,100838.61
2019-05-16T23:54:33.095Z,100837.35
2019-05-16T23:57:03.274Z,100843.05
2019-05-16T23:59:33.395Z,100841.26
